createdAt,value
2019-01-05T00:04:41.479Z,18.40
2019-01-05T00:07:29.092Z,19.87
2019-01-05T00:10:16.829Z,18.47
2019-01-05T00:16:14.403Z,16.00
2019-01-05T00:24:26.292Z,16.90
2019-01-05T00:27:14.268Z,16.97
2019-01-05T00:30:22.731Z,14.13
2019-01-05T00:36:06.522Z,16.40
2019-01-05T00:39:14.936Z,16.53
2019-01-05T00:42:02.589Z,17.00
2019-01-05T00:45:11.001Z,15.33
2019-01-05T00:48:19.491Z,15.77
2019-01-05T00:51:27.942Z,13.50
2019-01-05T00:54:36.699Z,16.07
2019-01-05T00:57:24.275Z,13.80
2019-01-05T01:00:12.201Z,13.40
2019-01-05T01:03:00.067Z,14.10
2019-01-05T01:05:47.715Z,12.00
2019-01-05T01:08:35.340Z,15.27
2019-01-05T01:11:23.063Z,15.90
2019-01-05T01:14:10.736Z,13.63
2019-01-05T01:16:58.498Z,14.70
2019-01-05T01:19:46.271Z,12.73
2019-01-05T01:22:54.728Z,13.27
2019-01-05T01:26:03.171Z,15.43
2019-01-05T01:28:51.141Z,15.10
2019-01-05T01:34:47.121Z,14.60
2019-01-05T01:37:34.774Z,12.40
2019-01-05T01:40:43.278Z,17.33
2019-01-05T01:43:30.860Z,13.20
2019-01-05T01:46:39.349Z,13.17
2019-01-05T01:49:26.918Z,16.67
2019-01-05T01:52:14.668Z,12.80
2019-01-05T01:58:12.260Z,18.90
2019-01-05T02:00:59.856Z,12.63
2019-01-05T02:04:08.314Z,19.67
2019-01-05T02:07:16.776Z,12.73
2019-01-05T02:10:25.243Z,12.57
2019-01-05T02:13:33.703Z,11.53
2019-01-05T02:16:42.165Z,12.20
2019-01-05T02:19:50.594Z,12.77
2019-01-05T02:22:59.142Z,11.27
2019-01-05T02:26:07.908Z,13.50
2019-01-05T02:29:34.153Z,11.30
2019-01-05T02:32:42.910Z,11.50
2019-01-05T02:36:09.468Z,12.37
2019-01-05T02:39:35.706Z,11.33
2019-01-05T02:43:01.990Z,10.40
2019-01-05T02:46:28.244Z,10.87
2019-01-05T02:49:37.345Z,10.33
2019-01-05T02:52:46.148Z,9.90
2019-01-05T02:55:54.536Z,11.37
2019-01-05T02:59:20.820Z,11.80
2019-01-05T03:06:17.722Z,11.90
2019-01-05T03:09:26.489Z,9.50
2019-01-05T03:12:34.992Z,11.93
2019-01-05T03:16:01.265Z,10.53
2019-01-05T03:19:09.744Z,11.03
2019-01-05T03:22:18.182Z,10.20
2019-01-05T03:25:44.439Z,9.33
2019-01-05T03:28:52.929Z,11.30
2019-01-05T03:32:01.396Z,10.90
2019-01-05T03:35:09.874Z,9.90
2019-01-05T03:38:36.120Z,9.77
2019-01-05T03:41:44.654Z,9.97
2019-01-05T03:48:23.804Z,11.20
2019-01-05T03:51:50.038Z,10.17
2019-01-05T03:54:58.524Z,9.63
2019-01-05T03:58:24.791Z,9.37
2019-01-05T04:01:33.804Z,10.00
2019-01-05T04:04:42.290Z,13.03
2019-01-05T04:07:51.053Z,9.97
2019-01-05T04:14:20.189Z,12.33
2019-01-05T04:20:59.617Z,10.70
2019-01-05T04:24:25.862Z,13.30
2019-01-05T04:27:34.684Z,10.97
2019-01-05T04:31:00.934Z,10.40
2019-01-05T04:37:39.916Z,10.23
2019-01-05T04:44:18.955Z,9.90
2019-01-05T04:47:27.482Z,9.00
2019-01-05T04:50:35.907Z,9.77
2019-01-05T04:54:02.177Z,12.00
2019-01-05T04:57:10.908Z,11.87
2019-01-05T05:07:14.226Z,9.80
2019-01-05T05:10:23.011Z,9.57
2019-01-05T05:13:31.743Z,10.03
2019-01-05T05:16:40.244Z,9.50
2019-01-05T05:19:48.774Z,9.57
2019-01-05T05:26:27.725Z,14.10
2019-01-05T05:29:36.500Z,18.50
2019-01-05T05:36:15.317Z,10.73
2019-01-05T05:39:23.739Z,14.90
2019-01-05T05:45:48.973Z,13.63
2019-01-05T05:48:57.497Z,13.83
2019-01-05T05:52:23.744Z,10.70
2019-01-05T05:58:52.476Z,11.13
2019-01-05T06:02:01.188Z,12.53
2019-01-05T06:05:09.662Z,12.30
2019-01-05T06:11:48.465Z,13.67
2019-01-05T06:14:57.232Z,13.13
2019-01-05T06:18:23.428Z,13.00
2019-01-05T06:21:31.993Z,12.27
2019-01-05T06:24:40.796Z,14.30
2019-01-05T06:31:37.720Z,10.63
2019-01-05T06:34:46.462Z,10.50
2019-01-05T06:41:12.338Z,13.13
2019-01-05T06:44:21.077Z,20.30
2019-01-05T06:50:46.563Z,13.77
2019-01-05T06:53:55.000Z,22.30
2019-01-05T06:57:21.274Z,16.27
2019-01-05T07:00:30.025Z,22.77
2019-01-05T07:03:56.289Z,26.60
2019-01-05T07:07:22.527Z,22.47
2019-01-05T07:13:47.732Z,20.57
2019-01-05T07:17:14.060Z,28.30
2019-01-05T07:20:22.837Z,33.77
2019-01-05T07:23:49.060Z,26.00
2019-01-05T07:27:15.336Z,26.17
2019-01-05T07:30:41.594Z,28.73
2019-01-05T07:33:50.073Z,28.13
2019-01-05T07:36:58.868Z,36.77
2019-01-05T07:40:25.118Z,29.70
2019-01-05T07:43:33.626Z,27.70
2019-01-05T07:46:42.147Z,57.27
2019-01-05T07:53:39.018Z,43.13
2019-01-05T07:56:47.465Z,37.43
2019-01-05T07:59:55.951Z,45.60
2019-01-05T08:03:22.236Z,43.10
2019-01-05T08:06:30.666Z,27.63
2019-01-05T08:09:39.473Z,37.60
2019-01-05T08:12:48.225Z,29.37
2019-01-05T08:15:57.461Z,41.73
2019-01-05T08:19:23.732Z,30.33
2019-01-05T08:22:32.478Z,36.30
2019-01-05T08:25:58.738Z,45.53
2019-01-05T08:29:25.207Z,33.87
2019-01-05T08:32:51.432Z,36.17
2019-01-05T08:36:17.673Z,26.37
2019-01-05T08:39:43.955Z,24.80
2019-01-05T08:43:10.199Z,31.23
2019-01-05T08:46:36.481Z,36.93
2019-01-05T08:49:45.025Z,38.90
2019-01-05T08:52:53.796Z,27.30
2019-01-05T08:59:19.322Z,26.53
2019-01-05T09:02:45.569Z,32.60
2019-01-05T09:06:11.854Z,34.63
2019-01-05T09:09:38.427Z,28.93
2019-01-05T09:12:46.943Z,32.63
2019-01-05T09:15:55.701Z,31.13
2019-01-05T09:19:04.196Z,28.40
2019-01-05T09:22:12.654Z,33.40
2019-01-05T09:25:21.176Z,31.20
2019-01-05T09:28:47.397Z,37.87
2019-01-05T09:31:55.905Z,33.43
2019-01-05T09:35:04.414Z,36.60
2019-01-05T09:38:30.691Z,25.47
2019-01-05T09:41:56.951Z,23.60
2019-01-05T09:45:05.712Z,28.27
2019-01-05T09:48:14.497Z,32.60
2019-01-05T09:51:22.981Z,27.13
2019-01-05T09:54:31.507Z,21.77
2019-01-05T09:57:57.765Z,35.77
2019-01-05T10:01:06.238Z,19.53
2019-01-05T10:04:32.484Z,25.27
2019-01-05T10:07:40.940Z,32.47
2019-01-05T10:10:49.443Z,33.77
2019-01-05T10:13:57.873Z,26.60
2019-01-05T10:17:06.404Z,23.50
2019-01-05T10:20:32.612Z,37.47
2019-01-05T10:23:58.866Z,32.50
2019-01-05T10:27:07.363Z,27.77
2019-01-05T10:33:46.746Z,36.53
2019-01-05T10:36:55.611Z,26.83
2019-01-05T10:40:21.866Z,31.50
2019-01-05T10:43:48.381Z,32.00
2019-01-05T10:46:57.436Z,31.50
2019-01-05T10:50:23.668Z,32.20
2019-01-05T10:56:52.578Z,30.73
2019-01-05T11:00:01.052Z,23.73
2019-01-05T11:03:09.664Z,22.47
2019-01-05T11:06:18.516Z,25.33
2019-01-05T11:09:44.810Z,27.87
2019-01-05T11:12:53.631Z,39.30
2019-01-05T11:16:02.116Z,27.30
2019-01-05T11:19:10.645Z,28.10
2019-01-05T11:29:10.065Z,21.80
2019-01-05T11:32:36.286Z,25.47
2019-01-05T11:36:02.588Z,22.43
2019-01-05T11:39:11.038Z,20.00
2019-01-05T11:42:19.797Z,17.17
2019-01-05T11:45:28.640Z,24.20
2019-01-05T11:48:37.181Z,28.30
2019-01-05T11:51:45.702Z,21.83
2019-01-05T11:54:54.171Z,21.90
2019-01-05T11:58:02.636Z,18.40
2019-01-05T12:01:11.235Z,22.53
2019-01-05T12:04:37.517Z,26.03
2019-01-05T12:08:04.615Z,28.27
2019-01-05T12:11:31.030Z,32.20
2019-01-05T12:21:33.975Z,22.73
2019-01-05T12:24:42.849Z,22.20
2019-01-05T12:28:09.101Z,23.60
2019-01-05T12:31:35.404Z,18.97
2019-01-05T12:34:43.813Z,29.20
2019-01-05T12:38:10.071Z,24.73
2019-01-05T12:41:18.546Z,15.97
2019-01-05T12:44:44.756Z,28.97
2019-01-05T12:51:09.960Z,22.77
2019-01-05T12:54:36.239Z,22.47
2019-01-05T12:57:44.747Z,22.43
2019-01-05T13:00:53.492Z,25.90
2019-01-05T13:04:19.795Z,18.20
2019-01-05T13:07:46.042Z,25.77
2019-01-05T13:10:55.113Z,18.70
2019-01-05T13:14:03.680Z,24.23
2019-01-05T13:17:29.897Z,16.47
2019-01-05T13:20:56.475Z,25.67
2019-01-05T13:24:05.009Z,17.00
2019-01-05T13:30:34.176Z,16.60
2019-01-05T13:33:42.705Z,25.20
2019-01-05T13:37:08.958Z,23.03
2019-01-05T13:40:17.463Z,22.17
2019-01-05T13:43:43.690Z,13.40
2019-01-05T13:46:52.189Z,25.37
2019-01-05T13:50:18.420Z,18.03
2019-01-05T13:53:26.951Z,21.83
2019-01-05T13:56:35.408Z,21.10
2019-01-05T13:59:23.011Z,24.83
2019-01-05T14:02:10.620Z,25.20
2019-01-05T14:04:58.172Z,23.40
2019-01-05T14:07:45.748Z,30.20
2019-01-05T14:13:22.573Z,16.00
2019-01-05T14:18:59.194Z,17.93
2019-01-05T14:24:35.862Z,21.90
2019-01-05T14:27:23.464Z,25.17
2019-01-05T14:30:11.065Z,21.20
2019-01-05T14:32:58.737Z,22.13
2019-01-05T14:35:46.370Z,21.30
2019-01-05T14:38:34.058Z,17.00
2019-01-05T14:41:21.722Z,18.10
2019-01-05T14:44:09.395Z,23.77
2019-01-05T14:46:57.004Z,12.40
2019-01-05T14:49:44.638Z,19.60
2019-01-05T14:52:32.295Z,21.43
2019-01-05T15:00:44.434Z,16.00
2019-01-05T15:03:32.077Z,17.40
2019-01-05T15:06:19.774Z,25.03
2019-01-05T15:09:07.395Z,15.50
2019-01-05T15:11:54.969Z,11.97
2019-01-05T15:14:42.717Z,21.40
2019-01-05T15:17:30.322Z,17.60
2019-01-05T15:20:17.886Z,15.13
2019-01-05T15:23:05.797Z,13.97
2019-01-05T15:25:53.530Z,17.03
2019-01-05T15:31:20.283Z,25.60
2019-01-05T15:34:07.884Z,21.93
2019-01-05T15:36:56.312Z,14.57
2019-01-05T15:39:44.288Z,19.27
2019-01-05T15:42:31.851Z,12.87
2019-01-05T15:45:19.539Z,21.33
2019-01-05T15:50:56.510Z,18.37
2019-01-05T15:53:44.193Z,12.00
2019-01-05T15:56:31.774Z,25.90
2019-01-05T15:59:19.754Z,16.90
2019-01-05T16:02:07.428Z,19.73
2019-01-05T16:04:54.999Z,25.63
2019-01-05T16:07:42.628Z,14.67
2019-01-05T16:13:05.539Z,23.20
2019-01-05T16:15:53.261Z,12.00
2019-01-05T16:18:40.846Z,13.60
2019-01-05T16:21:28.471Z,22.40
2019-01-05T16:24:16.119Z,12.07
2019-01-05T16:27:03.737Z,20.03
2019-01-05T16:29:52.208Z,20.03
2019-01-05T16:32:39.865Z,18.90
2019-01-05T16:35:27.538Z,21.97
2019-01-05T16:38:15.217Z,15.43
2019-01-05T16:43:51.915Z,14.13
2019-01-05T16:46:39.746Z,14.07
2019-01-05T16:49:27.419Z,14.33
2019-01-05T16:55:04.412Z,17.07
2019-01-05T16:57:52.012Z,22.90
2019-01-05T17:00:39.630Z,14.30
2019-01-05T17:03:27.202Z,12.70
2019-01-05T17:06:14.762Z,25.73
2019-01-05T17:09:02.330Z,24.40
2019-01-05T17:11:49.953Z,19.17
2019-01-05T17:14:37.557Z,33.63
2019-01-05T17:17:25.149Z,20.20
2019-01-05T17:20:12.882Z,18.90
2019-01-05T17:23:00.411Z,28.83
2019-01-05T17:25:48.223Z,23.33
2019-01-05T17:28:35.861Z,19.63
2019-01-05T17:31:23.452Z,27.60
2019-01-05T17:34:11.030Z,27.90
2019-01-05T17:36:58.996Z,18.17
2019-01-05T17:39:46.660Z,21.87
2019-01-05T17:42:34.230Z,20.67
2019-01-05T17:47:57.455Z,14.87
2019-01-05T17:53:20.423Z,18.20
2019-01-05T17:56:08.112Z,13.03
2019-01-05T17:58:55.693Z,12.90
2019-01-05T18:01:43.344Z,16.80
2019-01-05T18:04:30.924Z,10.70
2019-01-05T18:12:43.169Z,15.57
2019-01-05T18:15:30.838Z,11.77
2019-01-05T18:18:18.416Z,11.43
2019-01-05T18:21:06.020Z,12.13
2019-01-05T18:23:53.717Z,10.37
2019-01-05T18:26:41.308Z,10.03
2019-01-05T18:29:28.882Z,13.13
2019-01-05T18:32:16.526Z,17.17
2019-01-05T18:35:04.110Z,11.23
2019-01-05T18:37:51.708Z,10.70
2019-01-05T18:40:39.277Z,12.47
2019-01-05T18:43:26.872Z,10.23
2019-01-05T18:46:14.510Z,10.57
2019-01-05T18:49:02.275Z,9.90
2019-01-05T18:51:49.985Z,11.17
2019-01-05T18:54:37.631Z,9.20
2019-01-05T18:57:25.383Z,10.43
2019-01-05T19:00:12.970Z,13.17
2019-01-05T19:06:08.943Z,14.17
2019-01-05T19:14:24.488Z,11.20
2019-01-05T19:17:12.128Z,14.60
2019-01-05T19:19:59.744Z,10.43
2019-01-05T19:22:47.652Z,9.30
2019-01-05T19:25:35.142Z,11.23
2019-01-05T19:28:22.902Z,10.47
2019-01-05T19:31:10.541Z,10.70
2019-01-05T19:33:58.111Z,9.70
2019-01-05T19:36:45.803Z,10.60
2019-01-05T19:39:33.894Z,11.10
2019-01-05T19:42:21.491Z,15.07
2019-01-05T19:47:58.105Z,9.90
2019-01-05T19:50:45.688Z,12.70
2019-01-05T19:53:33.298Z,10.37
2019-01-05T19:59:17.781Z,15.13
2019-01-05T20:07:33.324Z,9.87
2019-01-05T20:10:21.209Z,11.47
2019-01-05T20:13:08.786Z,13.87
2019-01-05T20:15:56.371Z,10.03
2019-01-05T20:18:44.348Z,10.70
2019-01-05T20:21:31.892Z,12.67
2019-01-05T20:26:54.737Z,11.83
2019-01-05T20:29:42.342Z,11.17
2019-01-05T20:32:30.007Z,14.57
2019-01-05T20:37:56.458Z,10.60
2019-01-05T20:40:44.108Z,11.00
2019-01-05T20:43:31.676Z,9.40
2019-01-05T20:48:54.848Z,14.17
2019-01-05T20:57:06.861Z,9.93
2019-01-05T20:59:54.560Z,12.50
2019-01-05T21:02:42.167Z,11.70
2019-01-05T21:05:29.794Z,11.13
2019-01-05T21:08:17.377Z,13.73
2019-01-05T21:11:05.082Z,11.77
2019-01-05T21:13:52.647Z,12.87
2019-01-05T21:16:40.282Z,11.20
2019-01-05T21:19:27.921Z,10.57
2019-01-05T21:22:15.448Z,10.30
2019-01-05T21:25:03.042Z,18.63
2019-01-05T21:27:50.622Z,12.80
2019-01-05T21:30:38.559Z,15.50
2019-01-05T21:33:26.211Z,10.50
2019-01-05T21:36:13.752Z,12.50
2019-01-05T21:39:01.362Z,10.73
2019-01-05T21:41:48.978Z,16.53
2019-01-05T21:44:36.561Z,14.40
2019-01-05T21:47:24.544Z,10.97
2019-01-05T21:50:12.188Z,12.97
2019-01-05T21:55:35.334Z,11.43
2019-01-05T21:58:23.021Z,17.20
2019-01-05T22:01:10.694Z,10.17
2019-01-05T22:03:58.299Z,18.83
2019-01-05T22:06:46.191Z,12.60
2019-01-05T22:09:33.872Z,12.47
2019-01-05T22:12:42.364Z,11.77
2019-01-05T22:23:16.053Z,11.90
2019-01-05T22:26:03.756Z,15.33
2019-01-05T22:28:51.323Z,10.60
2019-01-05T22:31:38.994Z,10.93
2019-01-05T22:34:26.599Z,13.70
2019-01-05T22:39:53.404Z,12.83
2019-01-05T22:48:08.629Z,10.83
2019-01-05T22:50:56.306Z,18.10
2019-01-05T22:53:43.875Z,13.13
2019-01-05T22:56:31.659Z,13.63
2019-01-05T23:07:24.832Z,14.33
2019-01-05T23:10:12.502Z,14.23
2019-01-05T23:13:00.221Z,15.70
2019-01-05T23:18:26.784Z,11.77
2019-01-05T23:24:09.304Z,13.40
2019-01-05T23:26:56.951Z,10.67
2019-01-05T23:29:44.567Z,19.37
2019-01-05T23:32:32.315Z,15.60
2019-01-05T23:35:20.036Z,12.53
2019-01-05T23:38:07.890Z,14.53
2019-01-05T23:40:55.538Z,12.37
2019-01-05T23:43:43.281Z,11.20
2019-01-05T23:46:30.917Z,10.50
2019-01-05T23:52:14.745Z,11.57
2019-01-05T23:55:02.785Z,11.40
2019-01-05T23:57:50.713Z,18.17
